createdAt,value
2019-02-17T00:00:56.533Z,79.71
2019-02-17T00:03:24.493Z,80.04
2019-02-17T00:05:52.643Z,79.97
2019-02-17T00:08:20.688Z,79.84
2019-02-17T00:10:48.669Z,80.10
2019-02-17T00:13:16.757Z,80.62
2019-02-17T00:15:44.648Z,80.57
2019-02-17T00:18:12.585Z,80.57
2019-02-17T00:20:40.244Z,80.68
2019-02-17T00:23:08.111Z,80.84
2019-02-17T00:25:37.075Z,81.33
2019-02-17T00:28:05.180Z,81.15
2019-02-17T00:30:33.050Z,81.07
2019-02-17T00:33:01.112Z,80.93
2019-02-17T00:35:29.115Z,81.03
2019-02-17T00:37:56.959Z,81.05
2019-02-17T00:40:25.013Z,81.08
2019-02-17T00:42:53.599Z,81.47
2019-02-17T00:45:21.606Z,81.38
2019-02-17T00:47:49.786Z,81.39
2019-02-17T00:50:17.707Z,81.63
2019-02-17T00:52:45.603Z,81.75
2019-02-17T00:55:13.605Z,81.67
2019-02-17T00:57:41.570Z,81.69
2019-02-17T01:00:10.090Z,81.68
2019-02-17T01:02:39.142Z,81.77
2019-02-17T01:05:07.079Z,81.75
2019-02-17T01:07:34.969Z,82.25
2019-02-17T01:10:03.024Z,82.74
2019-02-17T01:12:31.025Z,82.36
2019-02-17T01:14:58.858Z,82.04
2019-02-17T01:17:26.961Z,82.10
2019-02-17T01:19:54.798Z,82.28
2019-02-17T01:22:22.694Z,82.09
2019-02-17T01:24:50.831Z,82.04
2019-02-17T01:27:18.756Z,82.54
2019-02-17T01:29:46.875Z,82.63
2019-02-17T01:32:14.652Z,82.63
2019-02-17T01:34:42.564Z,82.60
2019-02-17T01:37:10.535Z,82.52
2019-02-17T01:39:38.536Z,82.75
2019-02-17T01:42:06.420Z,82.89
2019-02-17T01:44:34.448Z,82.81
2019-02-17T01:47:02.482Z,82.81
2019-02-17T01:49:30.468Z,82.81
2019-02-17T01:51:58.564Z,82.75
2019-02-17T01:54:26.620Z,83.50
2019-02-17T01:56:54.732Z,83.37
2019-02-17T01:59:30.445Z,83.24
2019-02-17T02:01:52.587Z,83.34
2019-02-17T02:04:20.534Z,83.25
2019-02-17T02:06:48.558Z,83.25
2019-02-17T02:09:16.485Z,83.47
2019-02-17T02:11:44.752Z,83.50
2019-02-17T02:14:12.828Z,83.29
2019-02-17T02:16:41.099Z,83.12
2019-02-17T02:19:09.058Z,83.39
2019-02-17T02:21:37.121Z,83.16
2019-02-17T02:24:05.208Z,83.15
2019-02-17T02:26:33.320Z,83.15
2019-02-17T02:29:01.464Z,83.70
2019-02-17T02:31:29.720Z,83.58
2019-02-17T02:33:58.739Z,83.53
2019-02-17T02:36:26.724Z,83.48
2019-02-17T02:38:54.660Z,83.61
2019-02-17T02:41:33.855Z,83.59
2019-02-17T02:43:52.977Z,83.53
2019-02-17T02:46:21.066Z,83.65
2019-02-17T02:48:49.098Z,83.71
2019-02-17T02:51:17.213Z,84.33
2019-02-17T02:53:45.146Z,85.03
2019-02-17T02:56:13.097Z,85.21
2019-02-17T02:58:41.108Z,85.50
2019-02-17T03:01:10.332Z,84.99
2019-02-17T03:03:38.255Z,84.87
2019-02-17T03:06:28.528Z,84.79
2019-02-17T03:08:56.771Z,84.51
2019-02-17T03:11:24.628Z,84.77
2019-02-17T03:13:55.860Z,84.78
2019-02-17T03:16:23.854Z,84.58
2019-02-17T03:18:52.020Z,84.50
2019-02-17T03:21:19.883Z,84.46
2019-02-17T03:23:47.797Z,84.63
2019-02-17T03:26:15.628Z,85.44
2019-02-17T03:28:43.495Z,85.30
2019-02-17T03:31:11.460Z,85.31
2019-02-17T03:33:39.337Z,85.17
2019-02-17T03:36:07.299Z,84.97
2019-02-17T03:38:35.539Z,85.47
2019-02-17T03:41:03.313Z,85.23
2019-02-17T03:43:31.390Z,85.54
2019-02-17T03:45:59.266Z,85.43
2019-02-17T03:48:27.310Z,85.09
2019-02-17T03:50:55.174Z,85.16
2019-02-17T03:53:24.252Z,85.02
2019-02-17T03:55:52.363Z,84.84
2019-02-17T03:58:20.409Z,84.66
2019-02-17T04:00:49.672Z,84.65
2019-02-17T04:03:17.532Z,84.42
2019-02-17T04:05:45.716Z,84.48
2019-02-17T04:08:13.677Z,84.69
2019-02-17T04:10:41.810Z,84.71
2019-02-17T04:13:09.877Z,84.74
2019-02-17T04:15:37.964Z,84.58
2019-02-17T04:18:06.280Z,84.76
2019-02-17T04:20:33.991Z,84.81
2019-02-17T04:23:02.116Z,85.01
2019-02-17T04:25:31.245Z,84.95
2019-02-17T04:28:00.701Z,84.94
2019-02-17T04:30:29.799Z,85.07
2019-02-17T04:32:57.960Z,85.14
2019-02-17T04:35:25.991Z,85.46
2019-02-17T04:37:55.642Z,85.59
2019-02-17T04:40:23.798Z,85.48
2019-02-17T04:42:51.583Z,85.18
2019-02-17T04:45:19.691Z,85.15
2019-02-17T04:47:47.625Z,85.19
2019-02-17T04:50:15.562Z,85.41
2019-02-17T04:52:43.361Z,85.41
2019-02-17T04:55:11.514Z,85.53
2019-02-17T04:57:39.504Z,85.59
2019-02-17T05:00:08.100Z,85.72
2019-02-17T05:02:35.645Z,85.57
2019-02-17T05:05:03.805Z,85.49
2019-02-17T05:07:31.992Z,85.50
2019-02-17T05:10:00.058Z,85.45
2019-02-17T05:12:27.975Z,85.49
2019-02-17T05:14:55.947Z,85.50
2019-02-17T05:17:24.046Z,85.48
2019-02-17T05:19:51.768Z,85.37
2019-02-17T05:22:19.787Z,85.22
2019-02-17T05:24:47.746Z,85.36
2019-02-17T05:27:15.987Z,85.53
2019-02-17T05:29:43.918Z,85.47
2019-02-17T05:32:12.017Z,85.37
2019-02-17T05:34:40.028Z,86.43
2019-02-17T05:37:08.109Z,86.30
2019-02-17T05:39:36.155Z,86.41
2019-02-17T05:42:04.230Z,86.36
2019-02-17T05:44:32.357Z,86.15
2019-02-17T05:47:00.444Z,85.80
2019-02-17T05:49:28.379Z,85.97
2019-02-17T05:51:56.389Z,85.91
2019-02-17T05:54:24.446Z,85.79
2019-02-17T05:56:52.340Z,85.47
2019-02-17T05:59:20.243Z,85.57
2019-02-17T06:01:48.279Z,86.08
2019-02-17T06:04:16.184Z,86.67
2019-02-17T06:06:44.241Z,86.28
2019-02-17T06:09:12.108Z,86.05
2019-02-17T06:11:40.185Z,86.02
2019-02-17T06:14:08.275Z,86.08
2019-02-17T06:16:36.453Z,86.12
2019-02-17T06:19:04.373Z,86.16
2019-02-17T06:21:32.340Z,86.24
2019-02-17T06:24:00.304Z,86.07
2019-02-17T06:26:28.339Z,86.38
2019-02-17T06:28:57.867Z,85.94
2019-02-17T06:31:26.931Z,85.33
2019-02-17T06:33:54.997Z,84.78
2019-02-17T06:36:23.263Z,84.03
2019-02-17T06:38:51.396Z,83.01
2019-02-17T06:41:19.600Z,82.52
2019-02-17T06:43:47.768Z,82.15
2019-02-17T06:46:19.291Z,81.92
2019-02-17T06:48:47.233Z,80.83
2019-02-17T06:51:15.401Z,79.62
2019-02-17T06:53:43.459Z,78.73
2019-02-17T06:56:23.262Z,78.23
2019-02-17T06:58:51.404Z,77.86
2019-02-17T07:01:24.740Z,77.22
2019-02-17T07:03:49.298Z,76.98
2019-02-17T07:06:30.212Z,78.24
2019-02-17T07:08:58.191Z,77.15
2019-02-17T07:11:27.395Z,76.59
2019-02-17T07:13:55.313Z,75.86
2019-02-17T07:16:23.540Z,75.08
2019-02-17T07:18:51.417Z,74.74
2019-02-17T07:21:19.478Z,73.77
2019-02-17T07:23:47.319Z,72.94
2019-02-17T07:26:17.103Z,72.49
2019-02-17T07:28:45.320Z,71.90
2019-02-17T07:31:13.376Z,71.44
2019-02-17T07:33:41.278Z,71.19
2019-02-17T07:36:09.311Z,71.91
2019-02-17T07:38:37.208Z,70.02
2019-02-17T07:41:05.495Z,69.59
2019-02-17T07:43:35.237Z,69.39
2019-02-17T07:46:03.257Z,67.91
2019-02-17T07:48:31.225Z,66.24
2019-02-17T07:50:59.144Z,66.17
2019-02-17T07:53:27.538Z,65.39
2019-02-17T07:55:55.598Z,64.59
2019-02-17T07:58:23.664Z,63.65
2019-02-17T08:00:51.806Z,63.40
2019-02-17T08:03:19.793Z,63.86
2019-02-17T08:05:47.858Z,61.48
2019-02-17T08:08:16.241Z,61.45
2019-02-17T08:10:44.228Z,61.30
2019-02-17T08:13:12.376Z,61.41
2019-02-17T08:15:40.314Z,60.73
2019-02-17T08:18:08.321Z,60.27
2019-02-17T08:20:36.710Z,60.13
2019-02-17T08:23:04.794Z,57.52
2019-02-17T08:25:32.852Z,59.13
2019-02-17T08:28:01.022Z,59.67
2019-02-17T08:30:29.243Z,58.47
2019-02-17T08:32:57.073Z,57.92
2019-02-17T08:35:25.072Z,58.28
2019-02-17T08:37:53.079Z,58.03
2019-02-17T08:40:21.203Z,55.67
2019-02-17T08:42:49.399Z,55.13
2019-02-17T08:45:17.567Z,55.64
2019-02-17T08:47:45.587Z,56.11
2019-02-17T08:50:13.683Z,53.46
2019-02-17T08:52:41.628Z,54.28
2019-02-17T08:55:09.600Z,53.30
2019-02-17T08:57:38.173Z,52.80
2019-02-17T09:00:07.622Z,52.82
2019-02-17T09:02:35.815Z,51.08
2019-02-17T09:05:04.164Z,51.15
2019-02-17T09:07:32.209Z,50.97
2019-02-17T09:10:00.378Z,50.45
2019-02-17T09:12:28.412Z,50.99
2019-02-17T09:14:56.354Z,51.19
2019-02-17T09:17:25.474Z,51.18
2019-02-17T09:19:53.374Z,51.51
2019-02-17T09:22:21.471Z,51.15
2019-02-17T09:24:49.591Z,50.08
2019-02-17T09:27:17.629Z,48.94
2019-02-17T09:29:45.728Z,49.71
2019-02-17T09:32:16.282Z,49.96
2019-02-17T09:34:43.702Z,49.48
2019-02-17T09:37:12.143Z,48.57
2019-02-17T09:39:42.008Z,49.06
2019-02-17T09:42:10.074Z,49.84
2019-02-17T09:44:38.014Z,50.67
2019-02-17T09:47:06.050Z,49.97
2019-02-17T09:49:33.872Z,50.00
2019-02-17T09:52:01.837Z,50.24
2019-02-17T09:54:29.916Z,50.21
2019-02-17T09:56:57.970Z,50.19
2019-02-17T09:59:26.090Z,49.10
2019-02-17T10:01:54.354Z,47.21
2019-02-17T10:04:22.384Z,47.54
2019-02-17T10:06:50.271Z,47.28
2019-02-17T10:09:18.229Z,47.90
2019-02-17T10:11:46.163Z,47.27
2019-02-17T10:14:14.953Z,47.87
2019-02-17T10:16:43.006Z,46.13
2019-02-17T10:19:11.041Z,46.09
2019-02-17T10:21:39.085Z,45.49
2019-02-17T10:24:07.074Z,45.03
2019-02-17T10:26:35.089Z,45.24
2019-02-17T10:29:02.791Z,45.18
2019-02-17T10:31:30.430Z,44.21
2019-02-17T10:33:58.150Z,43.80
2019-02-17T10:36:25.851Z,42.89
2019-02-17T10:38:53.502Z,42.90
2019-02-17T10:41:21.062Z,44.12
2019-02-17T10:43:48.722Z,42.20
2019-02-17T10:46:16.257Z,42.45
2019-02-17T10:48:43.850Z,42.09
2019-02-17T10:51:11.836Z,41.46
2019-02-17T10:53:39.758Z,40.68
2019-02-17T10:56:07.738Z,41.77
2019-02-17T10:58:36.112Z,41.43
2019-02-17T11:01:04.384Z,41.63
2019-02-17T11:03:32.451Z,39.77
2019-02-17T11:06:00.624Z,39.68
2019-02-17T11:08:28.619Z,39.50
2019-02-17T11:10:56.522Z,38.95
2019-02-17T11:13:24.405Z,39.98
2019-02-17T11:15:52.231Z,38.61
2019-02-17T11:18:20.150Z,39.19
2019-02-17T11:20:48.099Z,39.30
2019-02-17T11:23:16.183Z,37.79
2019-02-17T11:25:43.959Z,38.24
2019-02-17T11:28:11.902Z,38.04
2019-02-17T11:30:39.848Z,38.91
2019-02-17T11:33:07.878Z,38.55
2019-02-17T11:35:35.507Z,37.67
2019-02-17T11:38:03.069Z,37.51
2019-02-17T11:40:30.800Z,36.57
2019-02-17T11:42:59.929Z,37.37
2019-02-17T11:45:27.837Z,36.26
2019-02-17T11:47:55.443Z,36.33
2019-02-17T11:50:23.104Z,36.37
2019-02-17T11:52:51.089Z,35.57
2019-02-17T11:55:19.463Z,36.62
2019-02-17T11:57:47.354Z,36.17
2019-02-17T12:00:17.035Z,36.61
2019-02-17T12:02:45.330Z,35.45
2019-02-17T12:05:13.384Z,35.46
2019-02-17T12:07:41.258Z,35.63
2019-02-17T12:10:09.939Z,34.72
2019-02-17T12:12:37.826Z,34.26
2019-02-17T12:15:06.386Z,35.02
2019-02-17T12:17:35.453Z,35.02
2019-02-17T12:20:35.297Z,35.26
2019-02-17T12:23:07.721Z,34.90
2019-02-17T12:25:58.142Z,34.74
2019-02-17T12:28:48.469Z,34.99
2019-02-17T12:31:23.790Z,33.19
2019-02-17T12:33:51.658Z,33.43
2019-02-17T12:36:20.237Z,33.68
2019-02-17T12:38:48.403Z,33.92
2019-02-17T12:41:16.945Z,33.03
2019-02-17T12:43:45.290Z,33.03
2019-02-17T12:46:13.347Z,33.46
2019-02-17T12:48:41.200Z,31.64
2019-02-17T12:51:09.525Z,31.64
2019-02-17T12:53:37.288Z,31.69
2019-02-17T12:56:06.014Z,31.55
2019-02-17T12:58:33.581Z,32.14
2019-02-17T13:01:01.233Z,31.71
2019-02-17T13:03:28.980Z,33.20
2019-02-17T13:05:56.565Z,33.20
2019-02-17T13:08:24.118Z,32.75
2019-02-17T13:10:51.714Z,32.75
2019-02-17T13:13:19.339Z,33.63
2019-02-17T13:15:46.908Z,32.68
2019-02-17T13:18:14.504Z,31.70
2019-02-17T13:20:42.127Z,32.64
2019-02-17T13:23:09.660Z,31.44
2019-02-17T13:25:38.301Z,31.97
2019-02-17T13:28:06.032Z,31.97
2019-02-17T13:30:33.716Z,32.58
2019-02-17T13:33:01.774Z,32.58
2019-02-17T13:35:29.730Z,33.45
2019-02-17T13:37:57.538Z,34.13
2019-02-17T13:40:25.566Z,34.13
2019-02-17T13:42:53.452Z,31.96
2019-02-17T13:45:21.632Z,31.50
2019-02-17T13:47:49.609Z,30.40
2019-02-17T13:50:17.579Z,30.40
2019-02-17T13:52:45.583Z,31.05
2019-02-17T13:55:13.479Z,31.57
2019-02-17T13:57:41.718Z,31.38
2019-02-17T14:00:11.893Z,31.38
2019-02-17T14:02:40.008Z,31.16
2019-02-17T14:05:07.867Z,31.77
2019-02-17T14:07:36.038Z,31.97
2019-02-17T14:10:06.779Z,31.35
2019-02-17T14:12:34.765Z,31.27
2019-02-17T14:15:02.901Z,31.41
2019-02-17T14:17:31.187Z,30.59
2019-02-17T14:19:59.272Z,31.61
2019-02-17T14:22:27.266Z,31.34
2019-02-17T14:24:55.212Z,32.36
2019-02-17T14:27:23.507Z,32.80
2019-02-17T14:29:51.355Z,32.17
2019-02-17T14:32:19.504Z,32.81
2019-02-17T14:34:47.360Z,32.79
2019-02-17T14:37:15.488Z,33.26
2019-02-17T14:39:43.361Z,33.69
2019-02-17T14:42:11.411Z,34.44
2019-02-17T14:44:39.205Z,34.88
2019-02-17T14:47:07.447Z,35.72
2019-02-17T14:49:35.242Z,36.36
2019-02-17T14:52:03.320Z,35.42
2019-02-17T14:54:31.274Z,35.69
2019-02-17T14:56:59.162Z,36.57
2019-02-17T14:59:27.930Z,36.84
2019-02-17T15:01:56.053Z,36.84
2019-02-17T15:04:24.036Z,38.28
2019-02-17T15:06:52.169Z,37.72
2019-02-17T15:09:20.195Z,37.53
2019-02-17T15:11:48.422Z,37.33
2019-02-17T15:14:16.353Z,38.16
2019-02-17T15:16:44.418Z,38.81
2019-02-17T15:19:12.355Z,39.47
2019-02-17T15:21:40.356Z,40.10
2019-02-17T15:24:08.447Z,40.36
2019-02-17T15:26:36.578Z,40.35
2019-02-17T15:29:04.476Z,40.53
2019-02-17T15:31:32.362Z,40.40
2019-02-17T15:34:00.491Z,40.58
2019-02-17T15:36:28.543Z,41.17
2019-02-17T15:38:56.624Z,41.78
2019-02-17T15:41:24.697Z,42.19
2019-02-17T15:43:52.740Z,42.62
2019-02-17T15:46:20.856Z,43.38
2019-02-17T15:48:48.744Z,43.79
2019-02-17T15:51:16.684Z,43.92
2019-02-17T15:53:44.608Z,44.55
2019-02-17T15:56:12.719Z,45.52
2019-02-17T15:58:40.756Z,45.95
2019-02-17T16:01:08.758Z,46.65
2019-02-17T16:03:36.906Z,47.36
2019-02-17T16:06:04.887Z,48.03
2019-02-17T16:08:33.160Z,48.54
2019-02-17T16:11:01.248Z,49.17
2019-02-17T16:13:29.319Z,49.83
2019-02-17T16:15:57.761Z,51.26
2019-02-17T16:18:25.788Z,51.24
2019-02-17T16:20:53.814Z,52.03
2019-02-17T16:23:22.318Z,52.33
2019-02-17T16:25:50.475Z,52.41
2019-02-17T16:28:18.502Z,52.79
2019-02-17T16:30:46.667Z,53.39
2019-02-17T16:33:17.460Z,54.19
2019-02-17T16:35:45.375Z,54.41
2019-02-17T16:38:14.411Z,54.90
2019-02-17T16:40:42.474Z,55.27
2019-02-17T16:43:10.479Z,55.94
2019-02-17T16:45:38.184Z,56.37
2019-02-17T16:48:06.112Z,56.35
2019-02-17T16:50:34.062Z,56.42
2019-02-17T16:53:01.720Z,56.97
2019-02-17T16:55:30.795Z,57.37
2019-02-17T16:57:58.377Z,57.86
2019-02-17T17:00:26.619Z,58.06
2019-02-17T17:02:54.487Z,58.35
2019-02-17T17:05:22.763Z,58.42
2019-02-17T17:07:50.631Z,58.78
2019-02-17T17:10:18.703Z,58.79
2019-02-17T17:12:46.322Z,59.23
2019-02-17T17:15:14.359Z,59.35
2019-02-17T17:17:42.142Z,59.61
2019-02-17T17:20:09.888Z,60.09
2019-02-17T17:22:37.501Z,60.29
2019-02-17T17:25:05.736Z,61.01
2019-02-17T17:27:33.404Z,61.03
2019-02-17T17:30:01.102Z,61.62
2019-02-17T17:32:28.690Z,61.71
2019-02-17T17:34:58.928Z,62.41
2019-02-17T17:37:25.990Z,62.66
2019-02-17T17:39:53.704Z,62.71
2019-02-17T17:42:22.461Z,62.94
2019-02-17T17:44:50.136Z,63.33
2019-02-17T17:47:17.744Z,63.76
2019-02-17T17:49:45.413Z,64.61
2019-02-17T17:52:12.953Z,64.46
2019-02-17T17:54:40.664Z,64.56
2019-02-17T17:57:08.279Z,65.01
2019-02-17T17:59:36.082Z,65.35
2019-02-17T18:02:03.718Z,65.27
2019-02-17T18:04:31.489Z,65.52
2019-02-17T18:06:59.068Z,65.52
2019-02-17T18:09:26.783Z,65.87
2019-02-17T18:11:54.349Z,66.20
2019-02-17T18:14:22.135Z,66.39
2019-02-17T18:16:50.249Z,66.50
2019-02-17T18:19:18.514Z,66.87
2019-02-17T18:21:46.589Z,67.81
2019-02-17T18:24:14.523Z,67.76
2019-02-17T18:26:43.595Z,68.25
2019-02-17T18:29:11.565Z,68.46
2019-02-17T18:31:40.302Z,68.74
2019-02-17T18:34:10.385Z,68.72
2019-02-17T18:36:38.561Z,68.62
2019-02-17T18:39:06.367Z,68.75
2019-02-17T18:41:34.699Z,69.16
2019-02-17T18:44:02.498Z,69.36
2019-02-17T18:46:30.398Z,69.69
2019-02-17T18:48:58.471Z,69.75
2019-02-17T18:51:26.725Z,70.16
2019-02-17T18:53:54.521Z,70.14
2019-02-17T18:56:22.326Z,70.31
2019-02-17T18:58:50.253Z,70.44
2019-02-17T19:01:18.315Z,71.01
2019-02-17T19:03:46.457Z,70.86
2019-02-17T19:06:14.561Z,71.41
2019-02-17T19:08:42.566Z,71.41
2019-02-17T19:11:10.685Z,71.36
2019-02-17T19:13:38.456Z,71.87
2019-02-17T19:16:06.544Z,71.90
2019-02-17T19:18:34.509Z,71.88
2019-02-17T19:21:02.563Z,72.09
2019-02-17T19:23:30.553Z,72.36
2019-02-17T19:25:58.673Z,72.61
2019-02-17T19:28:26.450Z,72.89
2019-02-17T19:30:54.464Z,73.27
2019-02-17T19:33:22.394Z,73.27
2019-02-17T19:35:50.611Z,73.36
2019-02-17T19:38:21.696Z,73.75
2019-02-17T19:40:52.206Z,73.78
2019-02-17T19:43:20.127Z,73.83
2019-02-17T19:45:48.669Z,73.97
2019-02-17T19:48:16.800Z,73.87
2019-02-17T19:50:45.113Z,74.00
2019-02-17T19:53:13.191Z,74.07
2019-02-17T19:55:41.062Z,74.05
2019-02-17T19:58:08.605Z,74.37
2019-02-17T20:00:36.840Z,74.41
2019-02-17T20:03:33.282Z,74.70
2019-02-17T20:06:02.291Z,74.96
2019-02-17T20:08:31.355Z,75.18
2019-02-17T20:10:59.297Z,75.56
2019-02-17T20:13:27.307Z,75.48
2019-02-17T20:15:56.199Z,75.58
2019-02-17T20:18:24.275Z,75.45
2019-02-17T20:20:52.399Z,75.49
2019-02-17T20:23:20.593Z,75.47
2019-02-17T20:25:48.712Z,75.68
2019-02-17T20:28:16.862Z,75.74
2019-02-17T20:30:44.881Z,75.74
2019-02-17T20:33:12.763Z,76.05
2019-02-17T20:35:40.834Z,76.23
2019-02-17T20:38:08.728Z,76.58
2019-02-17T20:40:36.796Z,76.67
2019-02-17T20:43:04.927Z,76.93
2019-02-17T20:45:33.039Z,77.03
2019-02-17T20:48:01.048Z,76.90
2019-02-17T20:50:29.009Z,76.87
2019-02-17T20:52:57.101Z,76.84
2019-02-17T20:55:25.341Z,76.79
2019-02-17T20:57:54.983Z,76.81
2019-02-17T21:00:25.067Z,76.95
2019-02-17T21:02:53.990Z,77.24
2019-02-17T21:05:22.251Z,77.42
2019-02-17T21:07:50.229Z,77.58
2019-02-17T21:10:18.114Z,77.67
2019-02-17T21:12:46.199Z,78.24
2019-02-17T21:15:15.868Z,78.21
2019-02-17T21:17:43.691Z,78.51
2019-02-17T21:20:13.277Z,78.50
2019-02-17T21:22:42.371Z,78.28
2019-02-17T21:25:10.342Z,78.22
2019-02-17T21:27:38.854Z,78.37
2019-02-17T21:30:06.949Z,78.54
2019-02-17T21:32:36.733Z,78.75
2019-02-17T21:35:06.204Z,78.52
2019-02-17T21:37:34.325Z,78.51
2019-02-17T21:40:02.179Z,78.81
2019-02-17T21:42:31.295Z,79.17
2019-02-17T21:44:59.409Z,79.63
2019-02-17T21:47:27.782Z,79.41
2019-02-17T21:49:55.594Z,79.68
2019-02-17T21:52:23.783Z,79.65
2019-02-17T21:54:51.781Z,79.62
2019-02-17T21:57:19.894Z,79.70
2019-02-17T21:59:47.999Z,79.75
2019-02-17T22:02:16.949Z,79.61
2019-02-17T22:04:45.016Z,79.63
2019-02-17T22:07:13.217Z,79.80
2019-02-17T22:09:41.081Z,79.72
2019-02-17T22:12:09.047Z,79.84
2019-02-17T22:14:36.924Z,79.95
2019-02-17T22:17:05.089Z,80.16
2019-02-17T22:19:33.286Z,80.33
2019-02-17T22:22:01.128Z,80.46
2019-02-17T22:24:29.017Z,80.76
2019-02-17T22:26:57.065Z,80.57
2019-02-17T22:29:25.015Z,80.70
2019-02-17T22:31:52.906Z,80.48
2019-02-17T22:34:21.084Z,80.93
2019-02-17T22:36:49.145Z,80.85
2019-02-17T22:39:17.184Z,80.92
2019-02-17T22:41:45.083Z,80.95
2019-02-17T22:44:12.893Z,80.99
2019-02-17T22:46:40.930Z,80.94
2019-02-17T22:49:08.872Z,80.98
2019-02-17T22:51:36.864Z,81.06
2019-02-17T22:54:04.820Z,81.06
2019-02-17T22:56:33.656Z,81.17
2019-02-17T22:59:02.066Z,81.32
2019-02-17T23:01:32.167Z,81.41
2019-02-17T23:04:00.326Z,81.76
2019-02-17T23:06:28.431Z,81.79
2019-02-17T23:08:56.455Z,81.64
2019-02-17T23:11:24.549Z,81.57
2019-02-17T23:13:52.530Z,81.55
2019-02-17T23:16:20.596Z,81.63
2019-02-17T23:18:48.565Z,81.63
2019-02-17T23:21:16.742Z,81.71
2019-02-17T23:23:44.717Z,81.78
2019-02-17T23:26:12.659Z,81.75
2019-02-17T23:28:40.836Z,81.87
2019-02-17T23:31:08.786Z,82.02
2019-02-17T23:33:36.862Z,81.86
2019-02-17T23:36:04.793Z,81.88
2019-02-17T23:38:32.793Z,82.05
2019-02-17T23:41:00.652Z,81.88
2019-02-17T23:43:28.643Z,81.83
2019-02-17T23:45:56.815Z,81.83
2019-02-17T23:48:24.680Z,82.02
2019-02-17T23:50:52.662Z,82.19
2019-02-17T23:53:20.645Z,82.12
2019-02-17T23:55:48.624Z,82.27
2019-02-17T23:58:16.713Z,82.15
